Newcastle, Maine
Current Conditions -  °F | °C
As of 6:53 AM on Saturday 22 Nov 2014 (Local Time) from KIWI Reporting Station
Few Clouds Few Clouds  
Wind Chill: 22°   Ceiling: Unl
Heat Index: 22°   Visibility: 10mi
Dew Point: 12°   Wind: 3mph
Humidity: 66%   Direction: 240°WSW
Pressure: 30.34"   Gusts: NA
Location:  44.04°N, 69.54°W
Report Text: KIWI 221153Z AUTO 24003KT 10SM FEW120 M06/M11 A3034 RMK AO2 SLP274 T10561111 11056 21089 58005
Loading
Personal Weather Stations






























Interactive Weather Map New forecast layout! Learn more

10-Day Weather Forecast

Advertisements
Track Severe Weather on mobile